createdAt,value
2018-12-05T00:01:42.860Z,101921.64
2018-12-05T00:04:12.483Z,101923.34
2018-12-05T00:06:42.080Z,101919.91
2018-12-05T00:09:11.673Z,101919.03
2018-12-05T00:11:41.262Z,101916.45
2018-12-05T00:14:10.928Z,101909.12
2018-12-05T00:16:40.507Z,101911.73
2018-12-05T00:19:10.088Z,101910.85
2018-12-05T00:21:43.274Z,101910.86
2018-12-05T00:24:12.953Z,101906.11
2018-12-05T00:26:42.689Z,101897.08
2018-12-05T00:29:12.286Z,101909.97
2018-12-05T00:31:42.830Z,101899.62
2018-12-05T00:34:12.415Z,101903.95
2018-12-05T00:36:42.030Z,101899.63
2018-12-05T00:39:11.807Z,101896.61
2018-12-05T00:41:41.431Z,101881.97
2018-12-05T00:44:11.046Z,101894.48
2018-12-05T00:46:40.694Z,101891.89
2018-12-05T00:49:10.366Z,101895.76
2018-12-05T00:51:39.942Z,101898.34
2018-12-05T00:54:10.595Z,101891.44
2018-12-05T00:56:40.182Z,101887.55
2018-12-05T00:59:11.696Z,101884.56
2018-12-05T01:01:42.248Z,101884.55
2018-12-05T01:04:11.859Z,101869.46
2018-12-05T01:06:41.524Z,101857.80
2018-12-05T01:09:12.387Z,101846.17
2018-12-05T01:11:42.051Z,101840.97
2018-12-05T01:14:11.665Z,101841.83
2018-12-05T01:16:41.275Z,101846.58
2018-12-05T01:19:10.862Z,101858.22
2018-12-05T01:21:41.140Z,101864.69
2018-12-05T01:24:10.727Z,101862.53
2018-12-05T01:26:41.219Z,101867.70
2018-12-05T01:29:10.844Z,101877.16
2018-12-05T01:31:40.481Z,101887.53
2018-12-05T01:34:10.102Z,101892.69
2018-12-05T01:36:39.710Z,101899.59
2018-12-05T01:39:09.408Z,101895.30
2018-12-05T01:41:39.653Z,101897.02
2018-12-05T01:44:09.270Z,101897.02
2018-12-05T01:46:39.018Z,101890.56
2018-12-05T01:49:08.628Z,101893.56
2018-12-05T01:51:38.311Z,101889.72
2018-12-05T01:54:08.035Z,101889.27
2018-12-05T01:56:37.620Z,101886.70
2018-12-05T01:59:07.719Z,101885.81
2018-12-05T02:01:37.349Z,101889.72
2018-12-05T02:04:07.072Z,101885.85
2018-12-05T02:06:36.669Z,101890.16
2018-12-05T02:09:09.316Z,101881.11
2018-12-05T02:11:39.253Z,101883.25
2018-12-05T02:14:08.853Z,101879.80
2018-12-05T02:16:40.646Z,101880.67
2018-12-05T02:19:10.219Z,101872.05
2018-12-05T02:21:40.249Z,101872.94
2018-12-05T02:24:09.824Z,101869.05
2018-12-05T02:26:39.496Z,101869.46
2018-12-05T02:29:09.088Z,101869.05
2018-12-05T02:31:38.795Z,101860.42
2018-12-05T02:34:08.904Z,101864.29
2018-12-05T02:36:38.745Z,101863.02
2018-12-05T02:39:09.523Z,101855.25
2018-12-05T02:41:39.308Z,101860.84
2018-12-05T02:44:08.872Z,101857.84
2018-12-05T02:46:38.475Z,101860.41
2018-12-05T02:49:08.085Z,101856.95
2018-12-05T02:51:37.672Z,101854.38
2018-12-05T02:54:08.156Z,101853.09
2018-12-05T02:56:37.809Z,101860.39
2018-12-05T02:59:08.100Z,101857.39
2018-12-05T03:01:37.715Z,101853.52
2018-12-05T03:04:07.580Z,101852.63
2018-12-05T03:06:37.218Z,101850.93
2018-12-05T03:09:09.303Z,101854.37
2018-12-05T03:11:38.937Z,101852.22
2018-12-05T03:14:08.814Z,101847.05
2018-12-05T03:16:38.443Z,101850.06
2018-12-05T03:19:08.090Z,101849.21
2018-12-05T03:21:37.681Z,101849.23
2018-12-05T03:24:07.328Z,101850.52
2018-12-05T03:26:36.934Z,101845.78
2018-12-05T03:29:06.840Z,101834.14
2018-12-05T03:31:37.687Z,101844.91
2018-12-05T03:34:07.519Z,101837.59
2018-12-05T03:36:37.119Z,101831.98
2018-12-05T03:39:09.161Z,101830.69
2018-12-05T03:41:38.823Z,101822.94
2018-12-05T03:44:08.638Z,101834.59
2018-12-05T03:46:38.307Z,101831.53
2018-12-05T03:49:07.932Z,101841.02
2018-12-05T03:51:37.538Z,101850.02
2018-12-05T03:54:07.367Z,101853.45
2018-12-05T03:56:36.969Z,101856.45
2018-12-05T03:59:06.624Z,101860.73
2018-12-05T04:01:36.218Z,101862.02
2018-12-05T04:04:05.894Z,101862.42
2018-12-05T04:06:35.648Z,101854.23
2018-12-05T04:09:06.864Z,101852.47
2018-12-05T04:11:36.513Z,101862.37
2018-12-05T04:14:07.596Z,101831.27
2018-12-05T04:16:38.442Z,101864.02
2018-12-05T04:19:08.096Z,101872.19
2018-12-05T04:21:37.713Z,101863.59
2018-12-05T04:24:07.454Z,101861.84
2018-12-05T04:26:38.154Z,101850.25
2018-12-05T04:29:07.765Z,101853.73
2018-12-05T04:31:37.338Z,101842.58
2018-12-05T04:34:07.016Z,101850.34
2018-12-05T04:36:36.622Z,101843.42
2018-12-05T04:39:11.953Z,101842.58
2018-12-05T04:41:41.849Z,101846.89
2018-12-05T04:44:11.473Z,101850.36
2018-12-05T04:46:44.338Z,101858.11
2018-12-05T04:49:14.148Z,101858.11
2018-12-05T04:51:43.774Z,101857.64
2018-12-05T04:54:13.396Z,101856.80
2018-12-05T04:56:43.078Z,101855.09
2018-12-05T04:59:12.934Z,101848.19
2018-12-05T05:01:43.153Z,101852.91
2018-12-05T05:04:12.724Z,101860.63
2018-12-05T05:06:42.343Z,101847.70
2018-12-05T05:09:12.193Z,101851.59
2018-12-05T05:11:41.796Z,101848.56
2018-12-05T05:14:11.429Z,101839.50
2018-12-05T05:16:41.082Z,101849.36
2018-12-05T05:19:11.337Z,101849.33
2018-12-05T05:21:41.695Z,101852.73
2018-12-05T05:24:11.347Z,101838.98
2018-12-05T05:26:40.929Z,101839.41
2018-12-05T05:29:10.553Z,101840.67
2018-12-05T05:31:40.122Z,101832.50
2018-12-05T05:34:09.746Z,101826.02
2018-12-05T05:36:40.415Z,101831.19
2018-12-05T05:39:09.984Z,101834.18
2018-12-05T05:41:39.581Z,101838.95
2018-12-05T05:44:10.271Z,101839.36
2018-12-05T05:46:40.272Z,101833.38
2018-12-05T05:49:09.867Z,101840.77
2018-12-05T05:51:39.452Z,101833.05
2018-12-05T05:54:09.037Z,101836.93
2018-12-05T05:56:38.762Z,101824.48
2018-12-05T05:59:08.387Z,101827.52
2018-12-05T06:01:37.993Z,101825.80
2018-12-05T06:04:07.583Z,101822.79
2018-12-05T06:06:37.183Z,101823.65
2018-12-05T06:09:08.075Z,101822.81
2018-12-05T06:11:37.726Z,101818.94
2018-12-05T06:14:07.352Z,101826.72
2018-12-05T06:16:37.593Z,101828.42
2018-12-05T06:19:07.267Z,101828.02
2018-12-05T06:21:36.843Z,101828.44
2018-12-05T06:24:06.579Z,101832.34
2018-12-05T06:26:36.167Z,101834.91
2018-12-05T06:29:05.806Z,101825.44
2018-12-05T06:31:35.550Z,101828.86
2018-12-05T06:34:05.466Z,101839.64
2018-12-05T06:36:35.080Z,101849.52
2018-12-05T06:39:06.751Z,101834.02
2018-12-05T06:41:36.418Z,101835.74
2018-12-05T06:44:06.157Z,101835.74
2018-12-05T06:46:35.723Z,101834.47
2018-12-05T06:49:05.388Z,101837.05
2018-12-05T06:51:34.970Z,101836.19
2018-12-05T06:54:04.614Z,101828.88
2018-12-05T06:56:34.221Z,101830.60
2018-12-05T06:59:04.945Z,101826.33
2018-12-05T07:01:36.244Z,101825.89
2018-12-05T07:04:06.277Z,101827.17
2018-12-05T07:06:36.645Z,101819.02
2018-12-05T07:09:08.983Z,101816.42
2018-12-05T07:11:39.147Z,101812.53
2018-12-05T07:14:08.810Z,101813.84
2018-12-05T07:16:41.525Z,101819.03
2018-12-05T07:21:57.378Z,101811.71
2018-12-05T07:24:28.119Z,101819.05
2018-12-05T07:26:59.383Z,101815.59
2018-12-05T07:29:28.962Z,101818.16
2018-12-05T07:31:58.562Z,101822.48
2018-12-05T07:34:28.150Z,101819.92
2018-12-05T07:36:57.733Z,101816.45
2018-12-05T07:39:27.318Z,101812.16
2018-12-05T07:41:57.190Z,101817.78
2018-12-05T07:44:27.261Z,101820.78
2018-12-05T07:46:57.709Z,101824.67
2018-12-05T07:49:28.309Z,101825.08
2018-12-05T07:51:57.948Z,101826.80
2018-12-05T07:54:27.542Z,101825.95
2018-12-05T07:56:57.176Z,101828.12
2018-12-05T07:59:26.748Z,101817.77
2018-12-05T08:01:56.408Z,101823.80
2018-12-05T08:04:25.999Z,101818.64
2018-12-05T08:06:56.137Z,101805.69
2018-12-05T08:09:29.134Z,101803.11
2018-12-05T08:11:58.810Z,101807.85
2018-12-05T08:14:29.244Z,101802.68
2018-12-05T08:16:58.811Z,101795.75
2018-12-05T08:19:28.944Z,101793.59
2018-12-05T08:21:59.374Z,101793.60
2018-12-05T08:24:29.030Z,101797.91
2018-12-05T08:26:58.600Z,101790.97
2018-12-05T08:29:28.266Z,101792.27
2018-12-05T08:31:58.164Z,101787.08
2018-12-05T08:34:27.989Z,101790.53
2018-12-05T08:36:57.638Z,101790.50
2018-12-05T08:39:27.272Z,101785.77
2018-12-05T08:41:57.013Z,101779.70
2018-12-05T08:44:26.568Z,101786.58
2018-12-05T08:46:56.243Z,101786.58
2018-12-05T08:49:26.051Z,101777.52
2018-12-05T08:51:55.851Z,101775.33
2018-12-05T08:54:30.331Z,101772.30
2018-12-05T08:57:00.208Z,101765.80
2018-12-05T08:59:30.327Z,101767.94
2018-12-05T09:02:00.076Z,101766.20
2018-12-05T09:04:30.180Z,101764.46
2018-12-05T09:07:00.024Z,101763.56
2018-12-05T09:09:29.699Z,101762.67
2018-12-05T09:12:00.681Z,101768.66
2018-12-05T09:14:30.952Z,101756.98
2018-12-05T09:17:00.571Z,101764.30
2018-12-05T09:19:31.583Z,101765.16
2018-12-05T09:22:01.161Z,101765.56
2018-12-05T09:24:31.380Z,101756.04
2018-12-05T09:27:01.084Z,101756.02
2018-12-05T09:29:32.097Z,101753.41
2018-12-05T09:32:01.688Z,101742.17
2018-12-05T09:34:32.138Z,101744.25
2018-12-05T09:37:01.740Z,101743.38
2018-12-05T09:39:31.447Z,101741.60
2018-12-05T09:42:01.940Z,101733.35
2018-12-05T09:44:32.194Z,101737.22
2018-12-05T09:47:01.795Z,101742.34
2018-12-05T09:49:33.415Z,101739.70
2018-12-05T09:52:03.086Z,101740.94
2018-12-05T09:54:32.696Z,101735.67
2018-12-05T09:57:02.299Z,101734.33
2018-12-05T09:59:33.594Z,101716.60
2018-12-05T10:02:03.444Z,101707.06
2018-12-05T10:04:35.590Z,101699.69
2018-12-05T10:07:05.274Z,101701.75
2018-12-05T10:09:34.860Z,101698.73
2018-12-05T10:12:05.178Z,101698.70
2018-12-05T10:14:35.401Z,101696.08
2018-12-05T10:17:06.173Z,101697.31
2018-12-05T10:19:35.800Z,101680.02
2018-12-05T10:22:05.424Z,101683.41
2018-12-05T10:24:35.069Z,101682.11
2018-12-05T10:27:04.638Z,101675.13
2018-12-05T10:29:34.237Z,101683.27
2018-12-05T10:32:05.114Z,101673.25
2018-12-05T10:34:37.159Z,101673.61
2018-12-05T10:37:06.829Z,101667.09
2018-12-05T10:39:36.404Z,101660.09
2018-12-05T10:42:06.801Z,101655.26
2018-12-05T10:44:36.356Z,101657.34
2018-12-05T10:47:05.989Z,101649.08
2018-12-05T10:49:35.665Z,101650.27
2018-12-05T10:52:05.331Z,101647.63
2018-12-05T10:54:34.931Z,101653.20
2018-12-05T10:57:04.586Z,101649.66
2018-12-05T10:59:34.200Z,101641.87
2018-12-05T11:02:09.172Z,101632.73
2018-12-05T11:18:15.673Z,101591.81
2018-12-05T11:23:43.897Z,101586.48
2018-12-05T11:26:15.186Z,101586.00
2018-12-05T11:28:44.768Z,101577.81
2018-12-05T11:31:14.343Z,101572.14
2018-12-05T11:33:43.998Z,101565.25
2018-12-05T11:36:13.658Z,101553.03
2018-12-05T11:38:44.299Z,101546.97
2018-12-05T11:41:13.879Z,101547.39
2018-12-05T11:43:43.478Z,101534.84
2018-12-05T11:46:15.419Z,101534.41
2018-12-05T11:48:45.439Z,101543.89
2018-12-05T11:51:16.291Z,101536.52
2018-12-05T11:53:47.997Z,101535.56
2018-12-05T11:56:17.547Z,101536.91
2018-12-05T11:58:47.124Z,101538.97
2018-12-05T12:01:16.752Z,101534.69
2018-12-05T12:03:46.352Z,101538.10
2018-12-05T12:06:15.955Z,101541.47
2018-12-05T12:08:45.576Z,101534.48
2018-12-05T12:11:15.189Z,101521.48
2018-12-05T12:13:45.776Z,101515.75
2018-12-05T12:16:15.907Z,101522.20
2018-12-05T12:18:45.508Z,101520.52
2018-12-05T12:21:15.090Z,101524.41
2018-12-05T12:23:44.702Z,101524.70
2018-12-05T12:26:14.322Z,101512.11
2018-12-05T12:28:43.954Z,101493.05
2018-12-05T12:31:13.571Z,101492.50
2018-12-05T12:33:43.213Z,101485.58
2018-12-05T12:36:12.800Z,101485.13
2018-12-05T12:38:45.796Z,101484.97
2018-12-05T12:41:15.401Z,101478.85
2018-12-05T12:43:51.185Z,101475.80
2018-12-05T12:46:22.311Z,101473.95
2018-12-05T12:48:51.885Z,101469.56
2018-12-05T12:51:23.573Z,101463.11
2018-12-05T12:53:53.821Z,101460.51
2018-12-05T12:56:23.689Z,101454.45
2018-12-05T12:58:53.279Z,101452.28
2018-12-05T13:01:23.179Z,101447.88
2018-12-05T13:03:52.753Z,101440.47
2018-12-05T13:06:23.822Z,101426.09
2018-12-05T13:08:53.940Z,101424.41
2018-12-05T13:11:23.665Z,101425.78
2018-12-05T13:13:53.339Z,101431.23
2018-12-05T13:16:23.228Z,101428.20
2018-12-05T13:18:52.830Z,101430.80
2018-12-05T13:21:22.422Z,101424.61
2018-12-05T13:23:52.071Z,101426.76
2018-12-05T13:26:21.664Z,101420.64
2018-12-05T13:28:51.271Z,101418.89
2018-12-05T13:31:20.861Z,101407.99
2018-12-05T13:33:51.148Z,101408.36
2018-12-05T13:36:22.972Z,101403.95
2018-12-05T13:38:53.445Z,101396.14
2018-12-05T13:41:23.627Z,101396.02
2018-12-05T13:43:53.219Z,101386.05
2018-12-05T13:46:29.729Z,101383.52
2018-12-05T13:48:54.534Z,101377.39
2018-12-05T13:51:24.118Z,101379.09
2018-12-05T13:53:53.717Z,101378.70
2018-12-05T13:56:25.577Z,101376.09
2018-12-05T13:58:55.191Z,101379.56
2018-12-05T14:01:24.836Z,101369.98
2018-12-05T14:03:54.431Z,101371.28
2018-12-05T14:06:24.036Z,101364.78
2018-12-05T14:08:53.632Z,101367.52
2018-12-05T14:11:25.128Z,101363.90
2018-12-05T14:13:54.725Z,101353.54
2018-12-05T14:16:24.328Z,101355.28
2018-12-05T14:18:53.918Z,101344.03
2018-12-05T14:21:23.681Z,101333.15
2018-12-05T14:23:53.366Z,101327.56
2018-12-05T14:26:23.314Z,101324.53
2018-12-05T14:28:53.003Z,101321.56
2018-12-05T14:31:22.743Z,101322.87
2018-12-05T14:33:52.430Z,101320.78
2018-12-05T14:36:22.103Z,101322.08
2018-12-05T14:38:52.476Z,101318.30
2018-12-05T14:41:22.895Z,101320.02
2018-12-05T14:43:52.483Z,101310.00
2018-12-05T14:46:22.161Z,101302.62
2018-12-05T14:48:51.846Z,101300.02
2018-12-05T14:51:21.434Z,101302.55
2018-12-05T14:53:51.044Z,101305.73
2018-12-05T14:56:20.594Z,101295.38
2018-12-05T14:58:50.176Z,101297.86
2018-12-05T15:01:19.758Z,101299.65
2018-12-05T15:03:50.178Z,101295.25
2018-12-05T15:06:20.388Z,101289.62
2018-12-05T15:08:49.930Z,101287.96
2018-12-05T15:11:19.555Z,101284.97
2018-12-05T15:13:50.471Z,101274.56
2018-12-05T15:16:20.029Z,101259.59
2018-12-05T15:18:50.155Z,101266.78
2018-12-05T15:21:19.761Z,101258.17
2018-12-05T15:23:49.358Z,101256.01
2018-12-05T15:26:18.933Z,101246.23
2018-12-05T15:28:48.507Z,101252.67
2018-12-05T15:31:18.136Z,101248.72
2018-12-05T15:33:48.618Z,101243.64
2018-12-05T15:36:18.205Z,101244.50
2018-12-05T15:38:47.766Z,101240.19
2018-12-05T15:41:17.399Z,101231.55
2018-12-05T15:43:47.015Z,101232.36
2018-12-05T15:46:20.605Z,101221.16
2018-12-05T15:48:50.181Z,101225.08
2018-12-05T15:51:20.024Z,101226.35
2018-12-05T15:53:51.785Z,101216.02
2018-12-05T15:56:21.384Z,101206.84
2018-12-05T15:58:51.009Z,101198.63
2018-12-05T16:01:20.586Z,101189.44
2018-12-05T16:03:50.180Z,101190.25
2018-12-05T16:06:19.757Z,101184.19
2018-12-05T16:08:49.408Z,101169.57
2018-12-05T16:11:19.017Z,101172.27
2018-12-05T16:13:49.720Z,101164.81
2018-12-05T16:16:19.339Z,101155.70
2018-12-05T16:18:49.053Z,101153.47
2018-12-05T16:21:18.740Z,101152.17
2018-12-05T16:23:48.351Z,101142.63
2018-12-05T16:26:17.968Z,101145.17
2018-12-05T16:28:47.610Z,101138.67
2018-12-05T16:31:17.229Z,101130.95
2018-12-05T16:33:47.668Z,101122.17
2018-12-05T16:36:17.271Z,101110.42
2018-12-05T16:38:46.846Z,101110.06
2018-12-05T16:41:16.422Z,101114.73
2018-12-05T16:43:46.031Z,101118.06
2018-12-05T16:46:15.611Z,101111.55
2018-12-05T16:48:45.197Z,101104.25
2018-12-05T16:51:14.796Z,101104.61
2018-12-05T16:53:44.387Z,101111.89
2018-12-05T16:56:14.271Z,101105.83
2018-12-05T16:58:43.848Z,101103.23
2018-12-05T17:01:13.444Z,101106.35
2018-12-05T17:03:43.033Z,101104.25
2018-12-05T17:06:12.603Z,101106.85
2018-12-05T17:08:42.207Z,101095.53
2018-12-05T17:11:14.119Z,101081.72
2018-12-05T17:13:43.724Z,101084.24
2018-12-05T17:16:18.170Z,101074.78
2018-12-05T17:18:46.824Z,101076.08
2018-12-05T17:21:16.417Z,101076.96
2018-12-05T17:23:46.034Z,101065.75
2018-12-05T17:26:15.727Z,101063.52
2018-12-05T17:28:46.040Z,101069.08
2018-12-05T17:31:15.858Z,101051.42
2018-12-05T17:33:45.458Z,101057.28
2018-12-05T17:36:15.027Z,101052.08
2018-12-05T17:38:44.735Z,101050.28
2018-12-05T17:41:15.489Z,101048.03
2018-12-05T17:43:46.334Z,101043.25
2018-12-05T17:46:16.279Z,101045.41
2018-12-05T17:48:45.856Z,101044.55
2018-12-05T17:51:15.432Z,101045.82
2018-12-05T17:53:45.055Z,101043.22
2018-12-05T17:56:14.632Z,101043.75
2018-12-05T17:58:44.199Z,101042.53
2018-12-05T18:01:13.873Z,101042.59
2018-12-05T18:03:43.469Z,101034.96
2018-12-05T18:06:13.056Z,101031.33
2018-12-05T18:08:42.612Z,101035.81
2018-12-05T18:11:12.219Z,101033.30
2018-12-05T18:13:42.959Z,101026.38
2018-12-05T18:16:12.603Z,101031.94
2018-12-05T18:18:42.192Z,101030.23
2018-12-05T18:21:11.832Z,101016.04
2018-12-05T18:23:41.411Z,101008.59
2018-12-05T18:26:11.049Z,101006.37
2018-12-05T18:28:40.631Z,101004.27
2018-12-05T18:31:10.344Z,100991.41
2018-12-05T18:33:40.545Z,100982.67
2018-12-05T18:36:11.657Z,100980.95
2018-12-05T18:38:41.283Z,100971.84
2018-12-05T18:41:10.908Z,100962.36
2018-12-05T18:43:40.532Z,100953.73
2018-12-05T18:46:10.335Z,100950.69
2018-12-05T18:48:39.988Z,100950.19
2018-12-05T18:51:09.636Z,100949.23
2018-12-05T18:53:40.986Z,100950.45
2018-12-05T18:56:10.650Z,100940.81
2018-12-05T18:58:40.259Z,100939.52
2018-12-05T19:01:10.260Z,100932.56
2018-12-05T19:03:39.911Z,100934.16
2018-12-05T19:06:09.676Z,100930.26
2018-12-05T19:08:39.375Z,100927.27
2018-12-05T19:11:09.051Z,100922.45
2018-12-05T19:13:40.455Z,100928.48
2018-12-05T19:16:10.511Z,100922.42
2018-12-05T19:18:40.069Z,100922.24
2018-12-05T19:21:09.679Z,100923.39
2018-12-05T19:23:42.286Z,100921.64
2018-12-05T19:26:11.935Z,100911.07
2018-12-05T19:28:41.518Z,100915.61
2018-12-05T19:31:11.259Z,100915.45
2018-12-05T19:33:40.827Z,100915.45
2018-12-05T19:36:10.427Z,100919.33
2018-12-05T19:38:40.002Z,100915.45
2018-12-05T19:41:09.704Z,100904.67
2018-12-05T19:43:39.289Z,100897.15
2018-12-05T19:46:08.949Z,100896.20
2018-12-05T19:48:39.860Z,100889.25
2018-12-05T19:51:09.932Z,100881.37
2018-12-05T19:53:39.551Z,100882.20
2018-12-05T19:56:09.175Z,100876.04
2018-12-05T19:58:38.753Z,100879.78
2018-12-05T20:01:08.465Z,100870.67
2018-12-05T20:03:41.009Z,100862.01
2018-12-05T20:06:10.593Z,100865.44
2018-12-05T20:08:40.195Z,100856.67
2018-12-05T20:11:10.491Z,100849.66
2018-12-05T20:13:40.665Z,100841.09
2018-12-05T20:16:12.044Z,100840.09
2018-12-05T20:18:41.990Z,100831.77
2018-12-05T20:21:12.098Z,100834.31
2018-12-05T20:23:43.258Z,100828.73
2018-12-05T20:26:13.162Z,100828.56
2018-12-05T20:28:44.280Z,100837.56
2018-12-05T20:31:13.895Z,100829.66
2018-12-05T20:33:44.909Z,100824.45
2018-12-05T20:36:14.477Z,100825.69
2018-12-05T20:38:44.066Z,100820.09
2018-12-05T20:41:14.824Z,100814.45
2018-12-05T20:43:45.829Z,100814.72
2018-12-05T20:46:18.087Z,100800.47
2018-12-05T20:48:47.925Z,100797.39
2018-12-05T20:51:17.635Z,100791.62
2018-12-05T20:53:48.918Z,100786.83
2018-12-05T20:56:19.470Z,100785.02
2018-12-05T20:58:49.062Z,100777.75
2018-12-05T21:01:23.203Z,100780.59
2018-12-05T21:03:52.811Z,100783.53
2018-12-05T21:06:25.968Z,100783.39
2018-12-05T21:08:58.030Z,100784.25
2018-12-05T21:11:28.038Z,100779.48
2018-12-05T21:13:59.487Z,100787.67
2018-12-05T21:16:29.433Z,100779.75
2018-12-05T21:18:59.035Z,100777.26
2018-12-05T21:21:32.110Z,100781.88
2018-12-05T21:24:02.117Z,100782.42
2018-12-05T21:26:32.996Z,100775.36
2018-12-05T21:29:02.955Z,100783.44
2018-12-05T21:31:33.541Z,100779.13
2018-12-05T21:34:03.134Z,100769.23
2018-12-05T21:36:35.306Z,100763.13
2018-12-05T21:39:09.277Z,100748.35
2018-12-05T21:41:40.062Z,100753.59
2018-12-05T21:44:10.850Z,100760.89
2018-12-05T21:46:41.400Z,100754.68
2018-12-05T21:49:14.106Z,100746.45
2018-12-05T21:51:44.987Z,100749.36
2018-12-05T21:54:16.781Z,100743.81
2018-12-05T21:56:46.376Z,100737.64
2018-12-05T21:59:17.120Z,100746.23
2018-12-05T22:01:48.316Z,100742.77
2018-12-05T22:04:18.040Z,100747.02
2018-12-05T22:06:47.735Z,100737.97
2018-12-05T22:09:18.824Z,100748.05
2018-12-05T22:11:52.360Z,100750.48
2018-12-05T22:14:24.225Z,100753.16
2018-12-05T22:16:55.468Z,100757.95
2018-12-05T22:19:25.422Z,100756.09
2018-12-05T22:21:55.444Z,100765.55
2018-12-05T22:24:25.094Z,100744.30
2018-12-05T22:26:55.362Z,100743.92
2018-12-05T22:29:25.505Z,100740.80
2018-12-05T22:31:56.187Z,100739.84
2018-12-05T22:34:26.213Z,100726.92
2018-12-05T22:36:55.913Z,100728.11
2018-12-05T22:39:25.781Z,100722.67
2018-12-05T22:41:55.723Z,100716.95
2018-12-05T22:44:25.499Z,100715.98
2018-12-05T22:46:55.319Z,100717.17
2018-12-05T22:49:25.369Z,100720.70
2018-12-05T22:51:55.023Z,100715.86
2018-12-05T22:54:24.616Z,100718.54
2018-12-05T22:57:11.425Z,100718.21
2018-12-05T22:59:41.448Z,100714.23
2018-12-05T23:02:11.294Z,100714.45
2018-12-05T23:04:40.884Z,100703.55
2018-12-05T23:07:12.839Z,100697.52
2018-12-05T23:09:42.642Z,100696.92
2018-12-05T23:12:13.770Z,100694.69
2018-12-05T23:14:43.640Z,100691.19
2018-12-05T23:17:13.249Z,100685.56
2018-12-05T23:19:45.016Z,100685.05
2018-12-05T23:22:15.283Z,100682.06
2018-12-05T23:24:44.983Z,100682.92
2018-12-05T23:27:14.587Z,100677.59
2018-12-05T23:29:44.217Z,100679.84
2018-12-05T23:32:16.220Z,100671.57
2018-12-05T23:34:46.240Z,100667.33
2018-12-05T23:40:55.777Z,100667.95
2018-12-05T23:43:25.800Z,100667.76
2018-12-05T23:45:57.945Z,100665.72
2018-12-05T23:48:27.853Z,100660.39
2018-12-05T23:50:58.050Z,100651.98
2018-12-05T23:53:28.482Z,100651.87
2018-12-05T23:55:58.490Z,100657.08
2018-12-05T23:58:28.817Z,100653.29
